Time;durP1;ratioP1;P1;durP2;ratioP2;P2;SDS_P1;SDS_P2;PMS_P1;PMS_P2;Temp;Humidity;BMP_temperature;BMP_pressure;BME280_temperature;BME280_humidity;BME280_pressure;Samples;Min_cycle;Max_cycle;Signal;HPM_P1;HPM_P2
2021/12/19 00:15:05;;;;;;;;;;;;;;;;;;;;;
2021/12/19 00:17:56;;;;;;;6.75;2.80;;;;;;;0.54;68.07;93641.28;4923577;29;20057;-88
2021/12/19 00:20:53;;;;;;;;;;;;;;;0.74;67.71;93664.47;4955973;29;20042;-89
2021/12/19 00:23:36;;;;;;;4.22;2.38;;;;;;;0.51;67.33;93636.50;4955097;29;20419;-89
2021/12/19 00:26:31;;;;;;;;;;;;;;;;;;;;;
2021/12/19 00:29:55;;;;;;;;;;;;;;;;;;;;;
2021/12/19 00:36:48;;;;;;;;;;;;;;;;;;;;;
2021/12/19 00:39:29;;;;;;;;;;;;;;;;;;;;;
2021/12/19 00:46:45;;;;;;;6.38;2.08;;;;;;;0.59;66.63;93633.72;4900836;29;20043;-88
2021/12/19 00:52:58;;;;;;;4.78;2.42;;;;;;;0.17;67.56;93573.81;4944565;29;20052;-88
2021/12/19 01:06:16;;;;;;;5.53;2.33;;;;;;;0.32;67.77;93575.44;4951256;29;20439;-89
2021/12/19 01:09:21;;;;;;;;;;;;;;;;;;;;;
2021/12/19 01:12:10;;;;;;;2.97;1.73;;;;;;;0.39;66.87;93582.19;4970826;28;20047;-88
2021/12/19 01:14:51;;;;;;;4.30;1.95;;;;;;;0.11;67.35;93545.47;4970719;28;20043;-89
2021/12/19 01:17:56;;;;;;;3.75;1.85;;;;;;;0.15;66.83;93544.88;4954924;29;20036;-88
2021/12/19 01:21:16;;;;;;;;;;;;;;;;;;;;;
2021/12/19 01:24:10;;;;;;;;;;;;;;;;;;;;;
2021/12/19 01:27:02;;;;;;;4.55;2.28;;;;;;;0.15;66.84;93524.28;4954469;29;20059;-88
2021/12/19 01:30:30;;;;;;;;;;;;;;;;;;;;;
2021/12/19 01:33:26;;;;;;;3.10;1.80;;;;;;;0.16;66.97;93525.09;4966388;28;20039;-89
2021/12/19 01:36:21;;;;;;;;;;;;;;;;;;;;;
2021/12/19 01:39:18;;;;;;;4.22;2.03;;;;;;;0.12;66.70;93514.41;4938215;29;20113;-89
2021/12/19 01:42:20;;;;;;;;;;;;;;;;;;;;;
2021/12/19 01:45:20;;;;;;;4.03;1.67;;;;;;;0.16;65.67;93512.22;4954132;29;20043;-89
2021/12/19 01:48:21;;;;;;;3.88;1.50;;;;;;;0.15;64.95;93506.25;4911062;29;20082;-89
2021/12/19 01:51:41;;;;;;;3.25;1.77;;;;;;;0.44;64.95;93548.09;4945699;29;20062;-89
2021/12/19 01:58:16;;;;;;;4.25;1.55;;;;;;;0.66;64.54;93571.09;4952108;28;20106;-89
2021/12/19 02:01:19;;;;;;;;;;;;;;;;;;;;;
2021/12/19 02:07:42;;;;;;;2.50;1.30;;;;;;;0.54;64.51;93538.19;4958069;29;20078;-89
2021/12/19 02:14:14;;;;;;;2.65;1.50;;;;;;;0.25;63.61;93497.34;4977372;28;20049;-89
2021/12/19 02:20:33;;;;;;;;;;;;;;;;;;;;;
2021/12/19 02:23:39;;;;;;;2.42;1.52;;;;;;;0.24;63.22;93475.97;4958653;29;20065;-89
2021/12/19 02:26:37;;;;;;;;;;;;;;;;;;;;;
2021/12/19 02:30:10;;;;;;;;;;;;;;;;;;;;;
2021/12/19 02:33:28;;;;;;;3.17;1.70;;;;;;;0.60;63.67;93516.78;4973027;28;20050;-89
2021/12/19 02:36:17;;;;;;;;;;;;;;;;;;;;;
2021/12/19 02:49:01;;;;;;;;;;;;;;;;;;;;;
2021/12/19 02:52:09;;;;;;;3.30;1.30;;;;;;;0.27;63.52;93465.28;4949301;28;20046;-88
2021/12/19 02:55:46;;;;;;;2.50;1.42;;;;;;;0.43;62.94;93479.53;4963341;28;20048;-88
2021/12/19 02:58:18;;;;;;;;;;;;;;;;;;;;;
2021/12/19 03:01:19;;;;;;;3.42;1.60;;;;;;;0.29;63.52;93465.06;4978659;28;20038;-89
2021/12/19 03:04:23;;;;;;;2.42;1.38;;;;;;;0.68;63.27;93515.00;4949753;28;20133;-89
2021/12/19 03:23:34;;;;;;;;;;;;;;;;;;;;;
2021/12/19 03:26:33;;;;;;;2.55;1.30;;;;;;;0.33;62.40;93433.56;4957942;29;20040;-89
2021/12/19 03:29:30;;;;;;;2.80;1.42;;;;;;;0.33;62.25;93412.97;4945454;29;20460;-88
2021/12/19 03:32:41;;;;;;;2.75;1.48;;;;;;;0.59;62.05;93444.84;4961509;28;20047;-94
2021/12/19 03:35:48;;;;;;;1.75;1.20;;;;;;;0.49;61.97;93416.88;4973002;28;20052;-89
2021/12/19 03:39:13;;;;;;;;;;;;;;;;;;;;;
2021/12/19 03:45:21;;;;;;;2.60;1.30;;;;;;;0.59;61.54;93421.66;4958182;29;20058;-88
2021/12/19 03:48:12;;;;;;;3.22;1.38;;;;;;;0.50;61.35;93403.03;4925664;29;20125;-89
2021/12/19 03:55:00;;;;;;;3.08;1.50;;;;;;;0.78;61.50;93432.88;4948172;29;20122;-89
2021/12/19 04:01:04;;;;;;;;;;;;;;;;;;;;;
2021/12/19 04:04:03;;;;;;;2.25;1.35;;;;;;;0.52;61.37;93385.59;4938082;29;20050;-89
2021/12/19 04:07:02;;;;;;;;;;;;;;;;;;;;;
2021/12/19 04:14:14;;;;;;;3.58;1.70;;;;;;;0.69;63.06;93416.06;4882886;29;20063;-88
2021/12/19 04:17:36;;;;;;;3.90;1.88;;;;;;;0.36;63.90;93378.28;4918377;29;20096;-88
2021/12/19 04:20:23;;;;;;;3.75;1.75;;;;;;;0.30;63.66;93371.38;4917377;29;20481;-89
2021/12/19 04:23:35;;;;;;;;;;;;;;;;;;;;;
2021/12/19 04:26:38;;;;;;;3.05;1.65;;;;;;;0.47;63.24;93393.09;4955628;29;20047;-89
2021/12/19 04:29:34;;;;;;;3.58;1.40;;;;;;;0.73;62.94;93423.19;4927192;29;20105;-89
2021/12/19 04:32:24;;;;;;;;;;;;;;;;;;;;;
2021/12/19 04:35:45;;;;;;;2.83;1.50;;;;;;;0.44;62.44;93366.97;4937088;29;20378;-89
2021/12/19 04:54:24;;;;;;;2.60;1.60;;;;;;;0.85;62.77;93410.47;4924826;29;20063;-89
2021/12/19 05:02:43;;;;;;;2.28;1.40;;;;;;;0.76;62.86;93402.16;4936390;29;20039;-88
2021/12/19 05:15:48;;;;;;;;;;;;;;;;;;;;;
2021/12/19 05:18:52;;;;;;;1.77;1.10;;;;;;;0.35;63.40;93348.38;4935265;29;20044;-91
2021/12/19 05:21:44;;;;;;;2.38;1.48;;;;;;;0.24;63.12;93330.97;4919268;29;20071;-89
2021/12/19 05:27:52;;;;;;;2.95;1.55;;;;;;;0.45;62.89;93353.91;4938761;29;20057;-88
2021/12/19 05:31:20;;;;;;;;;;;;;;;;;;;;;
2021/12/19 05:34:50;;;;;;;3.03;1.52;;;;;;;0.53;63.57;93371.69;4935395;29;20063;-88
2021/12/19 05:47:27;;;;;;;;;;;;;;;;;;;;;
2021/12/19 05:50:42;;;;;;;3.10;1.80;;;;;;;0.16;64.38;93309.59;4898426;29;20063;-88
2021/12/19 05:53:23;;;;;;;4.43;2.08;;;;;;;0.40;64.80;93320.22;4939543;29;20488;-89
2021/12/19 05:56:04;;;;;;;;;;;;;;;;;;;;;
2021/12/19 05:58:45;;;;;;;3.13;1.48;;;;;;;0.29;64.57;93310.53;4917932;29;20055;-87
2021/12/19 06:04:33;;;;;;;2.42;1.50;;;;;;;0.24;64.33;93284.63;4904177;29;20040;-87
2021/12/19 06:07:15;;;;;;;3.78;1.73;;;;;;;0.24;63.73;93280.25;4916364;29;20141;-86
2021/12/19 06:09:56;;;;;;;;;;;;;;;;;;;;;
2021/12/19 06:12:43;;;;;;;;;;;;;;;;;;;;;
2021/12/19 06:15:11;;;;;;;2.78;1.48;;;;;;;0.56;63.22;93313.81;4954805;28;20043;-88
2021/12/19 06:17:46;;;;;;;2.03;1.40;;;;;;;0.76;63.54;93345.44;4968421;28;20086;-87
2021/12/19 06:20:29;;;;;;;;;;;;;;;;;;;;;
2021/12/19 06:23:14;;;;;;;;;;;;;;;;;;;;;
2021/12/19 06:26:14;;;;;;;2.75;1.50;;;;;;;0.43;62.97;93278.59;4953027;29;20686;-88
2021/12/19 06:29:10;;;;;;;2.38;1.42;;;;;;;0.44;62.89;93269.88;4953453;29;20047;-87
2021/12/19 06:32:18;;;;;;;3.85;1.48;;;;;;;0.62;62.80;93306.06;4951042;28;20476;-87
2021/12/19 06:35:07;;;;;;;2.75;1.45;;;;;;;0.66;62.59;93303.09;4956896;28;20074;-88
2021/12/19 06:37:49;;;;;;;4.82;1.80;;;;;;;0.39;62.55;93247.31;4939690;28;20035;-86
2021/12/19 06:40:40;;;;;;;3.08;1.60;;;;;;;0.46;63.05;93255.00;4925701;29;20066;-87
2021/12/19 06:43:11;;;;;;;2.58;1.50;;;;;;;0.68;62.82;93285.66;4938061;29;20176;-86
2021/12/19 06:45:47;;;;;;;;;;;;;;;;;;;;;
2021/12/19 06:48:42;;;;;;;;;;;;;;;;;;;;;
2021/12/19 06:51:53;;;;;;;;;;;;;;;;;;;;;
2021/12/19 06:58:08;;;;;;;2.22;1.45;;;;;;;0.69;62.45;93269.16;4932508;29;20547;-89
2021/12/19 07:01:33;;;;;;;;;;;;;;;;;;;;;
2021/12/19 07:04:39;;;;;;;3.13;1.60;;;;;;;0.67;61.54;93243.59;4941160;29;20086;-88
2021/12/19 07:07:29;;;;;;;;;;;;;;;;;;;;;
2021/12/19 07:10:07;;;;;;;2.30;1.35;;;;;;;0.73;61.56;93245.34;4955073;28;20063;-90
2021/12/19 07:12:46;;;;;;;3.25;1.65;;;;;;;0.80;61.02;93245.31;4966103;28;20085;-92
2021/12/19 07:15:30;;;;;;;;;;;;;;;;;;;;;
2021/12/19 07:18:31;;;;;;;5.82;1.70;;;;;;;1.14;61.22;93276.84;4956512;28;20043;-86
2021/12/19 07:21:30;;;;;;;;;;;;;;;;;;;;;
2021/12/19 07:24:30;;;;;;;5.15;1.40;;;;;;;1.17;61.43;93273.84;4973673;28;20041;-86
2021/12/19 07:27:05;;;;;;;3.20;1.30;;;;;;;1.16;60.61;93238.75;4950627;28;20038;-87
2021/12/19 07:30:01;;;;;;;;;;;;;;;;;;;;;
2021/12/19 07:32:58;;;;;;;1.70;1.15;;;;;;;6.57;48.82;93245.56;4961206;28;20129;-88
2021/12/19 07:36:24;;;;;;;;;;;;;;;;;;;;;
2021/12/19 07:40:03;;;;;;;;;;;;;;;;;;;;;
2021/12/19 07:42:58;;;;;;;1.98;1.30;;;;;;;13.31;31.63;93256.97;4979442;28;20045;-89
2021/12/19 07:46:04;;;;;;;2.28;1.35;;;;;;;14.55;29.86;93220.50;4938701;28;20223;-88
2021/12/19 07:49:07;;;;;;;2.15;1.30;;;;;;;16.22;27.79;93236.72;4955555;29;20074;-88
2021/12/19 07:52:09;;;;;;;;;;;;;;;;;;;;;
2021/12/19 07:54:51;;;;;;;3.78;1.70;;;;;;;17.69;24.25;93211.75;4947662;29;20044;-89
2021/12/19 08:01:12;;;;;;;2.53;1.50;;;;;;;19.75;23.56;93198.31;4947587;28;20042;-88
2021/12/19 08:07:11;;;;;;;2.42;1.33;;;;;;;21.15;20.71;93216.22;4971768;28;20414;-88
2021/12/19 08:13:03;;;;;;;2.47;1.30;;;;;;;22.55;18.91;93183.53;4913021;28;20052;-89
2021/12/19 08:16:27;;;;;;;2.63;1.42;;;;;;;23.17;18.76;93231.16;4942595;28;20043;-90
2021/12/19 08:30:18;;;;;;;4.40;2.58;;;;;;;21.39;21.14;93170.13;4936229;28;20392;-88
2021/12/19 08:33:23;;;;;;;4.38;2.20;;;;;;;22.49;19.55;93176.13;4965996;28;20050;-91
2021/12/19 08:36:28;;;;;;;5.90;2.42;;;;;;;23.99;19.22;93181.38;4959434;28;20031;-88
2021/12/19 08:40:00;;;;;;;4.70;2.30;;;;;;;24.19;17.61;93184.81;4961524;28;20047;-89
2021/12/19 08:42:53;;;;;;;3.78;1.90;;;;;;;24.48;16.78;93176.16;4974058;28;20039;-89
2021/12/19 08:46:08;;;;;;;;;;;;;;;;;;;;;
2021/12/19 08:49:08;;;;;;;3.17;1.80;;;;;;;23.73;17.50;93158.69;4962757;28;20476;-89
2021/12/19 08:52:06;;;;;;;5.90;2.83;;;;;;;22.41;20.19;93183.19;4948939;28;20463;-92
2021/12/19 08:58:15;;;;;;;;;;;;;;;;;;;;;
2021/12/19 09:01:24;;;;;;;;;;;;;;;;;;;;;
2021/12/19 09:04:15;;;;;;;7.18;2.92;;;;;;;16.98;27.68;93180.28;4967720;28;20066;-90
2021/12/19 09:06:49;;;;;;;7.32;3.35;;;;;;;17.68;27.80;93195.09;4956796;28;20039;-89
2021/12/19 09:12:58;;;;;;;;;;;;;;;;;;;;;
2021/12/19 09:15:49;;;;;;;;;;;;;;;;;;;;;
2021/12/19 09:19:25;;;;;;;;;;;;;;;;;;;;;
2021/12/19 09:23:01;;;;;;;5.53;2.92;;;;;;;20.90;21.08;93172.88;4951061;29;20039;-88
2021/12/19 09:29:28;;;;;;;;;;;;;;;;;;;;;
2021/12/19 09:32:19;;;;;;;;;;;;;;;;;;;;;
2021/12/19 09:35:35;;;;;;;4.45;1.80;;;;;;;19.08;22.64;93206.09;4935207;29;20035;-89
2021/12/19 09:38:36;;;;;;;2.85;1.58;;;;;;;18.73;22.68;93173.63;4936046;29;20043;-89
2021/12/19 09:45:11;;;;;;;6.10;2.65;;;;;;;16.78;25.78;93178.97;4938509;29;20050;-89
2021/12/19 09:48:46;;;;;;;4.30;2.13;;;;;;;15.77;26.63;93145.13;4955772;29;20047;-90
2021/12/19 09:54:50;;;;;;;8.23;2.70;;;;;;;14.94;28.32;93136.72;4938982;28;20139;-89
2021/12/19 10:01:32;;;;;;;5.30;2.60;;;;;;;13.52;32.42;93150.41;4878670;29;20064;-89
2021/12/19 10:08:17;;;;;;;;;;;;;;;14.76;29.36;93181.38;4880413;29;20484;-89
2021/12/19 10:11:45;;;;;;;5.60;2.70;;;;;;;14.80;31.62;93188.69;4878733;29;20389;-89
2021/12/19 10:14:45;;;;;;;5.60;2.85;;;;;;;14.27;32.18;93190.69;4844148;29;20041;-89
2021/12/19 10:25:58;;;;;;;4.05;2.03;;;;;;;15.62;27.43;93166.56;4866440;29;20117;-89
2021/12/19 10:32:19;;;;;;;4.47;2.10;;;;;;;14.70;28.85;93156.22;4864127;29;20470;-88
2021/12/19 10:38:59;;;;;;;3.22;1.77;;;;;;;14.56;28.52;93147.53;4941823;29;20152;-89
2021/12/19 10:45:29;;;;;;;5.30;2.63;;;;;;;13.59;31.65;93159.78;4943571;29;20187;-89
2021/12/19 10:48:23;;;;;;;3.28;1.73;;;;;;;13.81;29.57;93149.41;4932902;29;20031;-90
2021/12/19 10:50:58;;;;;;;4.15;1.92;;;;;;;14.28;28.46;93128.31;4946670;28;20031;-90
2021/12/19 10:53:31;;;;;;;4.65;2.33;;;;;;;14.69;29.46;93125.66;4930090;29;20036;-89
2021/12/19 10:56:06;;;;;;;5.32;2.00;;;;;;;15.02;29.89;93101.75;4954252;29;20040;-89
2021/12/19 10:58:34;;;;;;;;;;;;;;;15.28;28.99;93117.00;4939895;29;20040;-90
2021/12/19 11:01:54;;;;;;;;;;;;;;;;;;;;;
2021/12/19 11:16:49;;;;;;;;;;;;;;;;;;;;;
2021/12/19 11:19:46;;;;;;;;;;;;;;;;;;;;;
2021/12/19 11:22:59;;;;;;;6.60;3.22;;;;;;;14.96;33.55;93071.31;4889366;29;20045;-88
2021/12/19 11:25:31;;;;;;;3.67;1.90;;;;;;;15.30;30.23;93025.16;4920507;29;20176;-87
2021/12/19 11:28:03;;;;;;;8.25;4.28;;;;;;;15.36;32.23;93031.88;4921991;29;20047;-87
2021/12/19 11:30:31;;;;;;;8.10;3.72;;;;;;;13.19;35.63;93043.63;4938181;29;20048;-87
2021/12/19 11:33:14;;;;;;;8.27;3.97;;;;;;;13.32;35.92;93054.19;4922168;29;20503;-87
2021/12/19 11:35:50;;;;;;;6.90;3.72;;;;;;;13.78;35.20;93007.09;4922904;29;20513;-87
2021/12/19 11:38:29;;;;;;;7.00;3.65;;;;;;;14.23;33.74;93015.16;4953408;29;20459;-88
2021/12/19 11:41:11;;;;;;;6.03;3.88;;;;;;;13.44;36.74;93035.34;4921557;29;20039;-89
2021/12/19 13:28:14;;;;;;;;;;;;;;;;;;;;;
2021/12/19 13:40:30;;;;;;;9.50;2.50;;;;;;;13.87;29.65;92900.88;4820862;29;20050;-88
2021/12/19 13:43:09;;;;;;;6.88;2.30;;;;;;;14.36;29.84;92862.41;4817668;29;20081;-87
2021/12/19 13:45:52;;;;;;;5.13;2.60;;;;;;;14.52;29.16;92885.72;4803327;29;20526;-87
2021/12/19 13:48:45;;;;;;;4.22;2.00;;;;;;;14.01;26.13;92889.56;4795240;29;20042;-87
2021/12/19 13:51:44;;;;;;;4.15;1.92;;;;;;;14.19;28.03;92828.06;4804805;29;20063;-89
2021/12/19 13:54:55;;;;;;;;;;;;;;;;;;;;;
2021/12/19 13:58:10;;;;;;;3.65;1.85;;;;;;;14.18;28.94;92888.91;4956836;28;20059;-88
2021/12/19 14:01:02;;;;;;;4.22;1.80;;;;;;;13.86;28.92;92840.66;4967242;28;20529;-87
2021/12/19 14:04:05;;;;;;;5.43;2.40;;;;;;;14.36;26.70;92824.75;4974169;28;20050;-87
2021/12/19 14:06:59;;;;;;;7.30;2.13;;;;;;;14.84;26.46;92853.09;4959755;29;20041;-87
2021/12/19 14:09:46;;;;;;;4.18;2.10;;;;;;;14.99;26.69;92850.06;4991513;28;20038;-88
2021/12/19 14:12:50;;;;;;;;;;;;;;;;;;;;;
2021/12/19 14:15:15;;;;;;;3.85;1.60;;;;;;;13.95;28.18;92826.47;4950070;28;20078;-87
2021/12/19 14:17:56;;;;;;;4.35;2.08;;;;;;;14.82;27.38;92865.03;4979208;28;20050;-88
2021/12/19 14:20:39;;;;;;;5.95;1.85;;;;;;;14.90;26.56;92870.31;4943532;28;20395;-86
2021/12/19 14:24:01;;;;;;;4.05;1.80;;;;;;;14.58;25.06;92819.47;4977313;28;20112;-87
2021/12/19 14:26:54;;;;;;;6.43;2.80;;;;;;;14.96;26.90;92850.66;4976574;28;20055;-91
2021/12/19 14:29:48;;;;;;;;;;;;;;;;;;;;;
2021/12/19 14:32:27;;;;;;;4.40;1.88;;;;;;;15.11;26.75;92852.13;4979639;28;20134;-86
2021/12/19 14:35:16;;;;;;;;;;;;;;;;;;;;;
2021/12/19 14:37:50;;;;;;;2.47;1.50;;;;;;;15.27;25.53;92857.00;4977703;28;20042;-87
2021/12/19 14:43:30;;;;;;;7.07;2.70;;;;;;;13.66;26.74;92826.09;4969260;28;20121;-89
2021/12/19 14:46:13;;;;;;;5.30;1.92;;;;;;;13.37;27.07;92850.88;4973868;28;20483;-86
2021/12/19 14:48:47;;;;;;;3.53;1.52;;;;;;;13.00;27.79;92828.97;4973552;28;20047;-86
2021/12/19 14:51:29;;;;;;;2.70;1.55;;;;;;;12.43;27.69;92828.44;4940347;28;20041;-86
2021/12/19 14:54:31;;;;;;;50.55;18.90;;;;;;;12.04;29.18;92832.19;4957533;28;20045;-88
2021/12/19 14:57:15;;;;;;;8.17;3.13;;;;;;;11.54;31.53;92829.97;4956539;28;20061;-88
2021/12/19 14:59:45;;;;;;;6.20;2.42;;;;;;;11.53;31.49;92866.97;4971774;28;20282;-87
2021/12/19 15:02:13;;;;;;;7.63;2.83;;;;;;;11.10;34.22;92869.56;4972130;28;20031;-88
2021/12/19 15:05:36;;;;;;;5.45;2.47;;;;;;;10.82;30.62;92872.75;4964437;28;20031;-86
2021/12/19 15:08:25;;;;;;;9.57;4.10;;;;;;;10.38;35.78;92857.19;4939277;28;20047;-89
2021/12/19 15:11:03;;;;;;;6.90;2.95;;;;;;;10.03;34.10;92856.41;4954151;28;20046;-86
2021/12/19 15:13:32;;;;;;;8.68;4.20;;;;;;;9.62;35.82;92819.31;4955761;28;20039;-87
2021/12/19 15:16:13;;;;;;;6.55;1.83;;;;;;;9.75;28.57;92824.72;4951559;28;20043;-86
2021/12/19 15:18:47;;;;;;;5.43;2.30;;;;;;;10.00;31.83;92857.72;4957281;28;20035;-86
2021/12/19 15:21:42;;;;;;;3.25;1.77;;;;;;;9.79;27.73;92802.19;4924359;28;20062;-87
2021/12/19 15:24:16;;;;;;;2.17;1.20;;;;;;;9.97;27.28;92798.13;4937284;28;20031;-86
2021/12/19 15:26:56;;;;;;;23.23;10.27;;;;;;;10.29;29.07;92861.44;4943386;28;20035;-86
2021/12/19 15:29:33;;;;;;;8.00;3.25;;;;;;;9.66;31.36;92797.59;4942590;28;20571;-86
2021/12/19 15:32:05;;;;;;;7.45;3.08;;;;;;;9.75;31.87;92840.38;4973531;28;20472;-88
2021/12/19 15:34:39;;;;;;;5.50;3.00;;;;;;;9.39;31.02;92795.41;4941014;28;20041;-85
2021/12/19 15:37:13;;;;;;;5.57;2.58;;;;;;;9.19;31.55;92798.91;4910532;28;20047;-86
2021/12/19 15:39:47;;;;;;;4.72;2.33;;;;;;;9.07;31.97;92812.25;4940681;28;20089;-87
2021/12/19 15:43:00;;;;;;;3.38;1.70;;;;;;;8.95;32.02;92809.97;4973483;28;20503;-85
2021/12/19 15:45:41;;;;;;;3.10;1.50;;;;;;;9.01;31.24;92838.69;4947155;28;20540;-87
2021/12/19 15:48:13;;;;;;;2.88;1.40;;;;;;;8.77;32.23;92805.34;4951382;28;20686;-86
2021/12/19 15:50:53;;;;;;;2.17;0.90;;;;;;;9.02;30.33;92841.03;4955802;28;20035;-86
2021/12/19 15:53:32;;;;;;;1.60;1.02;;;;;;;9.15;28.34;92840.44;4972734;28;20073;-88
2021/12/19 15:55:59;;;;;;;3.35;0.85;;;;;;;9.20;26.00;92807.53;4956360;28;20052;-87
2021/12/19 15:58:28;;;;;;;1.70;1.00;;;;;;;9.28;25.38;92793.91;4956737;28;20029;-88
2021/12/19 16:01:10;;;;;;;;;;;;;;;;;;;;;
2021/12/19 16:03:42;;;;;;;1.05;0.70;;;;;;;9.62;24.76;92788.72;4942754;28;20042;-87
2021/12/19 16:06:11;;;;;;;0.60;0.60;;;;;;;9.69;25.84;92815.31;4956078;28;20514;-86
2021/12/19 16:08:52;;;;;;;1.15;0.90;;;;;;;9.49;26.42;92789.31;4957569;28;20026;-87
2021/12/19 16:11:22;;;;;;;4.57;1.90;;;;;;;9.67;28.74;92822.66;4956439;28;20118;-86
2021/12/19 16:13:50;;;;;;;3.35;1.25;;;;;;;9.70;29.01;92866.53;4940949;28;20058;-86
2021/12/19 16:16:18;;;;;;;1.02;0.80;;;;;;;9.56;26.21;92837.63;4952070;28;20612;-86
2021/12/19 16:18:44;;;;;;;1.25;0.85;;;;;;;9.42;25.86;92822.81;4956905;28;20121;-86
2021/12/19 16:21:10;;;;;;;1.55;0.82;;;;;;;9.44;24.29;92807.66;4957129;28;20396;-85
2021/12/19 16:23:42;;;;;;;1.52;0.68;;;;;;;9.89;23.81;92830.09;4956698;28;20101;-85
2021/12/19 16:26:08;;;;;;;1.58;0.80;;;;;;;9.70;24.39;92808.25;4940515;28;20035;-86
2021/12/19 16:28:39;;;;;;;1.85;1.05;;;;;;;9.73;24.94;92811.13;4956350;28;20097;-87
2021/12/19 16:31:15;;;;;;;1.45;0.70;;;;;;;9.68;24.11;92808.56;4927116;28;20134;-86
2021/12/19 16:33:51;;;;;;;0.75;0.65;;;;;;;9.80;22.28;92789.91;4941392;28;20039;-86
2021/12/19 16:36:29;;;;;;;2.25;1.13;;;;;;;9.82;23.74;92785.19;4957302;28;20045;-86
2021/12/19 16:39:16;;;;;;;5.35;2.17;;;;;;;9.96;23.71;92793.19;4956768;28;20042;-86
2021/12/19 16:42:10;;;;;;;1.75;1.08;;;;;;;9.90;23.73;92794.25;4957101;28;20035;-86
2021/12/19 16:48:46;;;;;;;1.15;0.80;;;;;;;9.90;23.04;92786.41;4962475;28;20033;-85
2021/12/19 17:55:07;;;;;;;;;;;;;;;;;;;;;
2021/12/19 18:05:02;;;;;;;3.83;1.70;;;;;;;10.16;21.37;92829.63;4933681;29;20055;-79
2021/12/19 18:07:28;;;;;;;1.27;0.93;;;;;;;10.16;20.77;92818.38;4910339;29;20047;-82
2021/12/19 18:09:53;;;;;;;2.40;1.00;;;;;;;10.46;21.12;92827.03;4942729;29;20032;-78
2021/12/19 18:12:19;;;;;;;2.85;1.30;;;;;;;10.28;21.22;92825.84;4931899;29;20042;-79
2021/12/19 18:14:46;;;;;;;1.23;0.77;;;;;;;10.32;20.15;92832.13;4926817;29;20349;-79
2021/12/19 18:17:12;;;;;;;2.05;1.15;;;;;;;10.20;21.72;92820.19;4969820;28;20243;-80
2021/12/19 18:20:16;;;;;;;2.17;1.13;;;;;;;10.26;21.32;92822.75;4936100;29;20038;-78
2021/12/19 18:22:41;;;;;;;8.30;2.50;;;;;;;10.26;21.65;92817.50;4956956;28;20082;-79
2021/12/19 18:25:10;;;;;;;7.78;3.17;;;;;;;10.19;22.19;92820.44;4941330;29;20032;-79
2021/12/19 18:27:36;;;;;;;4.22;2.03;;;;;;;10.14;21.75;92820.50;4931795;29;20088;-80
2021/12/19 18:30:03;;;;;;;2.70;1.55;;;;;;;10.08;22.16;92827.59;4939526;29;20039;-78
2021/12/19 18:32:29;;;;;;;2.30;1.30;;;;;;;10.13;21.31;92824.94;4954545;28;20221;-78
2021/12/19 18:34:57;;;;;;;3.53;1.60;;;;;;;10.08;21.78;92822.34;4955763;29;20098;-78
2021/12/19 18:37:28;;;;;;;5.93;2.50;;;;;;;10.07;21.67;92828.66;4917214;29;20043;-78
2021/12/19 18:39:58;;;;;;;4.55;1.83;;;;;;;10.16;21.46;92836.69;4945379;29;20057;-79
2021/12/19 18:45:27;;;;;;;2.80;1.30;;;;;;;10.19;21.48;92823.81;4955838;29;20054;-78
2021/12/19 18:58:13;;;;;;;;;;;;;;;9.99;21.95;92827.38;4941056;29;20043;-78
2021/12/19 19:00:43;;;;;;;3.22;1.42;;;;;;;9.90;21.70;92821.19;4960462;28;19919;-78
2021/12/19 19:03:17;;;;;;;3.70;1.63;;;;;;;10.06;20.85;92819.22;4963499;28;20074;-78
2021/12/19 19:05:46;;;;;;;3.72;1.60;;;;;;;10.08;21.04;92819.72;4944996;29;20052;-78
2021/12/19 19:08:11;;;;;;;10.35;3.92;;;;;;;10.13;20.86;92811.88;4941264;29;20105;-78
2021/12/19 19:10:37;;;;;;;46.80;17.05;;;;;;;10.06;21.63;92814.00;4946916;29;20489;-78
2021/12/19 19:13:04;;;;;;;127.82;43.25;;;;;;;9.99;21.54;92811.69;4944145;29;20065;-78
2021/12/19 19:15:31;;;;;;;216.75;66.22;;;;;;;9.97;21.82;92813.03;4933160;29;20070;-78
2021/12/19 19:17:57;;;;;;;46.20;15.60;;;;;;;10.03;20.69;92809.31;4965866;28;20027;-78
2021/12/19 19:20:23;;;;;;;8.38;3.08;;;;;;;10.07;20.82;92810.34;4938033;29;20440;-78
2021/12/19 19:22:49;;;;;;;4.72;2.13;;;;;;;10.07;21.18;92812.97;4953288;29;20027;-79
2021/12/19 19:25:15;;;;;;;3.45;1.70;;;;;;;10.12;20.81;92801.66;4939528;29;20035;-78
2021/12/19 19:27:41;;;;;;;4.57;2.90;;;;;;;10.01;21.46;92806.19;4937390;29;20512;-78
2021/12/19 19:30:09;;;;;;;4.32;2.30;;;;;;;10.01;20.85;92806.97;4943062;29;20055;-78
2021/12/19 19:32:35;;;;;;;5.00;2.20;;;;;;;10.02;20.54;92815.63;4942049;29;20030;-78
2021/12/19 19:35:01;;;;;;;4.10;2.35;;;;;;;10.04;20.68;92810.09;4957252;28;20577;-77
2021/12/19 19:37:34;;;;;;;2.38;1.13;;;;;;;10.07;20.61;92807.72;4956850;28;20325;-78
2021/12/19 19:51:03;;;;;;;1.42;0.90;;;;;;;9.91;21.22;92806.28;4894916;29;20112;-78
2021/12/19 19:53:30;;;;;;;0.52;0.50;;;;;;;9.88;20.86;92797.13;4913718;29;20424;-78
2021/12/19 19:55:56;;;;;;;0.70;0.70;;;;;;;9.95;20.94;92796.81;4944404;29;20035;-78
2021/12/19 19:58:22;;;;;;;0.55;0.55;;;;;;;9.96;21.01;92795.78;4951790;29;20035;-78
2021/12/19 20:00:47;;;;;;;0.73;0.68;;;;;;;10.02;20.20;92799.94;4934783;29;20109;-78
2021/12/19 20:03:13;;;;;;;1.60;0.90;;;;;;;10.10;20.02;92794.09;4934012;29;20425;-77
2021/12/19 20:05:39;;;;;;;1.98;1.10;;;;;;;10.12;20.30;92797.22;4939899;29;20107;-78
2021/12/19 20:08:04;;;;;;;2.20;1.10;;;;;;;10.21;20.01;92790.31;4924530;29;20375;-78
2021/12/19 20:10:30;;;;;;;2.85;1.20;;;;;;;10.21;19.69;92795.56;4942484;29;20102;-78
2021/12/19 20:12:56;;;;;;;2.03;0.90;;;;;;;10.24;20.11;92793.44;4939006;29;20031;-78
2021/12/19 20:15:23;;;;;;;1.02;0.80;;;;;;;10.23;19.64;92791.91;4941044;29;20043;-78
2021/12/19 20:17:49;;;;;;;1.23;0.88;;;;;;;10.24;19.93;92802.06;4928493;29;20127;-78
2021/12/19 20:20:16;;;;;;;1.17;0.90;;;;;;;10.34;19.17;92794.16;4928626;29;20067;-78
2021/12/19 20:22:42;;;;;;;2.17;0.80;;;;;;;10.35;19.69;92794.94;4952565;29;20429;-78
2021/12/19 20:25:08;;;;;;;0.50;0.50;;;;;;;10.27;19.92;92791.06;4941615;29;20075;-78
2021/12/19 20:27:34;;;;;;;0.77;0.70;;;;;;;10.19;20.26;92787.19;4941348;29;20125;-78
2021/12/19 20:30:00;;;;;;;2.17;1.02;;;;;;;10.19;20.11;92789.81;4934325;29;20063;-78
2021/12/19 20:32:25;;;;;;;0.60;0.45;;;;;;;10.28;19.58;92799.69;4935371;29;20091;-78
2021/12/19 20:34:51;;;;;;;0.50;0.50;;;;;;;10.28;20.01;92786.63;4942548;29;20054;-78
2021/12/19 20:37:17;;;;;;;0.82;0.60;;;;;;;10.23;19.63;92802.38;4924023;29;20027;-78
2021/12/19 20:39:43;;;;;;;1.05;0.63;;;;;;;10.28;19.65;92794.47;4924620;29;20067;-78
2021/12/19 20:42:11;;;;;;;1.77;0.70;;;;;;;10.30;19.46;92795.00;4941406;29;20044;-78
2021/12/19 20:44:37;;;;;;;1.52;0.70;;;;;;;10.29;19.88;92782.97;4925016;29;20034;-78
2021/12/19 20:47:04;;;;;;;0.50;0.50;;;;;;;10.28;20.08;92789.22;4948096;29;20122;-78
2021/12/19 20:49:32;;;;;;;0.75;0.40;;;;;;;10.36;19.26;92786.81;4938721;29;20485;-78
2021/12/19 20:51:59;;;;;;;0.82;0.50;;;;;;;10.33;19.12;92782.13;4939425;29;20036;-78
2021/12/19 20:54:25;;;;;;;0.50;0.50;;;;;;;10.43;18.90;92775.25;4934138;29;20039;-78
2021/12/19 20:56:52;;;;;;;1.27;0.50;;;;;;;10.40;18.80;92777.38;4926512;29;20032;-78
2021/12/19 20:59:19;;;;;;;0.60;0.47;;;;;;;10.38;19.14;92778.69;4943125;29;20035;-78
2021/12/19 21:01:46;;;;;;;0.50;0.50;;;;;;;10.24;19.03;92765.44;4940074;29;20087;-78
2021/12/19 21:04:12;;;;;;;0.50;0.50;;;;;;;10.31;19.33;92789.50;4943565;29;20058;-78
2021/12/19 21:06:37;;;;;;;0.47;0.40;;;;;;;10.24;19.13;92783.75;4920455;29;20468;-78
2021/12/19 21:09:08;;;;;;;25.80;10.23;;;;;;;10.33;19.46;92781.34;4920470;29;20568;-78
2021/12/19 21:11:34;;;;;;;2.80;1.27;;;;;;;10.22;19.79;92772.78;4961303;28;20447;-78
2021/12/19 21:14:10;;;;;;;0.65;0.57;;;;;;;10.14;19.59;92778.63;4932575;28;20035;-78
2021/12/19 21:19:22;;;;;;;0.30;0.30;;;;;;;10.30;18.28;92760.97;4941115;29;20035;-80
2021/12/19 21:22:00;;;;;;;0.47;0.47;;;;;;;10.18;19.12;92767.34;4955812;28;20019;-80
2021/12/19 21:24:31;;;;;;;1.65;0.98;;;;;;;10.06;20.09;92772.16;4955108;29;20382;-80
2021/12/19 21:27:03;;;;;;;0.80;0.63;;;;;;;9.95;19.95;92763.63;4941359;29;20031;-80
2021/12/19 21:29:29;;;;;;;0.40;0.40;;;;;;;9.85;20.49;92770.78;4924186;29;20048;-78
2021/12/19 21:31:56;;;;;;;0.65;0.55;;;;;;;9.83;20.03;92765.81;4957560;29;20050;-78
2021/12/19 21:34:27;;;;;;;0.40;0.40;;;;;;;9.79;19.69;92760.38;4956423;29;20086;-80
2021/12/19 21:39:37;;;;;;;0.50;0.50;;;;;;;9.80;19.39;92761.91;4945636;29;20045;-79
2021/12/19 21:42:03;;;;;;;1.05;0.75;;;;;;;9.79;19.50;92762.97;4934016;29;20333;-80
2021/12/19 21:44:29;;;;;;;0.77;0.60;;;;;;;9.85;19.26;92766.31;4937150;29;20094;-80
2021/12/19 21:46:54;;;;;;;1.05;0.73;;;;;;;9.79;19.65;92777.88;4923159;29;20184;-79
2021/12/19 21:49:20;;;;;;;2.75;1.20;;;;;;;9.78;19.78;92771.09;4945952;29;20031;-79
2021/12/19 21:51:46;;;;;;;1.27;0.80;;;;;;;9.85;19.70;92765.53;4940989;28;20031;-80
2021/12/19 21:54:12;;;;;;;0.38;0.38;;;;;;;9.79;19.74;92768.22;4953509;28;20485;-80